sensor_id;sensor_type;location;lat;lon;timestamp;pressure;altitude;pressure_sealevel;temperature;humidity
20160;BME280;50187;50.492;12.134;2024-01-15T00:00:08;95877.31;;;21.13;24.74
20160;BME280;50187;50.492;12.134;2024-01-15T00:02:56;95872.34;;;21.10;24.41
20160;BME280;50187;50.492;12.134;2024-01-15T00:05:42;95876.72;;;21.11;24.52
20160;BME280;50187;50.492;12.134;2024-01-15T00:08:27;95870.06;;;21.07;24.62
20160;BME280;50187;50.492;12.134;2024-01-15T00:11:12;95875.03;;;21.10;24.36
20160;BME280;50187;50.492;12.134;2024-01-15T00:13:58;95862.56;;;21.09;24.46
20160;BME280;50187;50.492;12.134;2024-01-15T00:16:43;95867.97;;;21.09;24.58
20160;BME280;50187;50.492;12.134;2024-01-15T00:19:28;95856.34;;;21.08;24.67
20160;BME280;50187;50.492;12.134;2024-01-15T00:22:17;95839.28;;;21.01;24.64
20160;BME280;50187;50.492;12.134;2024-01-15T00:25:03;95848.00;;;21.03;24.70
20160;BME280;50187;50.492;12.134;2024-01-15T00:27:48;95843.84;;;21.07;24.54
20160;BME280;50187;50.492;12.134;2024-01-15T00:30:34;95844.28;;;21.04;24.61
20160;BME280;50187;50.492;12.134;2024-01-15T00:33:19;95839.91;;;21.03;24.49
20160;BME280;50187;50.492;12.134;2024-01-15T00:36:05;95842.22;;;21.00;24.55
20160;BME280;50187;50.492;12.134;2024-01-15T00:38:51;95840.53;;;21.05;24.54
20160;BME280;50187;50.492;12.134;2024-01-15T00:41:36;95830.53;;;21.06;24.50
20160;BME280;50187;50.492;12.134;2024-01-15T00:44:22;95828.06;;;21.04;24.51
20160;BME280;50187;50.492;12.134;2024-01-15T00:47:07;95826.38;;;21.03;24.65
20160;BME280;50187;50.492;12.134;2024-01-15T00:49:52;95830.34;;;21.07;24.43
20160;BME280;50187;50.492;12.134;2024-01-15T00:52:37;95833.03;;;21.01;24.32
20160;BME280;50187;50.492;12.134;2024-01-15T00:55:23;95831.38;;;21.06;24.71
20160;BME280;50187;50.492;12.134;2024-01-15T00:58:08;95832.22;;;21.07;24.72
20160;BME280;50187;50.492;12.134;2024-01-15T01:00:54;95835.13;;;21.05;24.54
20160;BME280;50187;50.492;12.134;2024-01-15T01:03:40;95835.13;;;21.05;24.77
20160;BME280;50187;50.492;12.134;2024-01-15T01:06:26;95835.31;;;21.04;24.60
20160;BME280;50187;50.492;12.134;2024-01-15T01:09:11;95834.06;;;21.06;24.38
20160;BME280;50187;50.492;12.134;2024-01-15T01:11:56;95828.66;;;21.06;24.58
20160;BME280;50187;50.492;12.134;2024-01-15T01:14:42;95824.72;;;21.02;24.65
20160;BME280;50187;50.492;12.134;2024-01-15T01:17:28;95832.22;;;21.07;24.64
20160;BME280;50187;50.492;12.134;2024-01-15T01:20:13;95838.03;;;21.04;24.46
20160;BME280;50187;50.492;12.134;2024-01-15T01:23:03;95849.69;;;21.04;24.60
20160;BME280;50187;50.492;12.134;2024-01-15T01:25:48;95854.88;;;21.06;24.63
20160;BME280;50187;50.492;12.134;2024-01-15T01:28:34;95855.31;;;21.03;24.58
20160;BME280;50187;50.492;12.134;2024-01-15T01:31:19;95861.75;;;21.02;24.63
20160;BME280;50187;50.492;12.134;2024-01-15T01:34:05;95853.41;;;21.03;24.67
20160;BME280;50187;50.492;12.134;2024-01-15T01:36:50;95859.63;;;21.04;24.58
20160;BME280;50187;50.492;12.134;2024-01-15T01:39:35;95841.56;;;21.04;24.63
20160;BME280;50187;50.492;12.134;2024-01-15T01:42:21;95850.50;;;21.05;24.43
20160;BME280;50187;50.492;12.134;2024-01-15T01:45:06;95846.75;;;21.06;24.39
20160;BME280;50187;50.492;12.134;2024-01-15T01:47:52;95837.84;;;21.05;24.34
20160;BME280;50187;50.492;12.134;2024-01-15T01:50:37;95826.00;;;21.00;24.85
20160;BME280;50187;50.492;12.134;2024-01-15T01:53:24;95835.31;;;21.04;24.30
20160;BME280;50187;50.492;12.134;2024-01-15T01:56:12;95829.72;;;21.05;24.37
20160;BME280;50187;50.492;12.134;2024-01-15T01:58:58;95826.16;;;21.05;24.60
20160;BME280;50187;50.492;12.134;2024-01-15T02:01:48;95812.06;;;21.03;24.49
20160;BME280;50187;50.492;12.134;2024-01-15T02:04:34;95807.91;;;21.00;24.37
20160;BME280;50187;50.492;12.134;2024-01-15T02:07:21;95836.38;;;21.03;24.46
20160;BME280;50187;50.492;12.134;2024-01-15T02:10:07;95838.44;;;21.01;24.77
20160;BME280;50187;50.492;12.134;2024-01-15T02:12:53;95833.03;;;21.01;24.58
20160;BME280;50187;50.492;12.134;2024-01-15T02:15:39;95833.69;;;21.03;24.45
20160;BME280;50187;50.492;12.134;2024-01-15T02:18:25;95829.09;;;21.03;24.30
20160;BME280;50187;50.492;12.134;2024-01-15T02:21:11;95814.75;;;21.03;24.57
20160;BME280;50187;50.492;12.134;2024-01-15T02:23:57;95808.50;;;21.02;24.54
20160;BME280;50187;50.492;12.134;2024-01-15T02:26:42;95822.22;;;21.01;24.43
20160;BME280;50187;50.492;12.134;2024-01-15T02:29:28;95840.94;;;21.02;24.50
20160;BME280;50187;50.492;12.134;2024-01-15T02:32:13;95843.63;;;21.02;24.43
20160;BME280;50187;50.492;12.134;2024-01-15T02:34:58;95846.75;;;21.06;24.37
20160;BME280;50187;50.492;12.134;2024-01-15T02:37:44;95842.59;;;21.03;24.45
20160;BME280;50187;50.492;12.134;2024-01-15T02:40:29;95849.91;;;21.03;24.47
20160;BME280;50187;50.492;12.134;2024-01-15T02:43:15;95841.16;;;21.07;24.55
20160;BME280;50187;50.492;12.134;2024-01-15T02:46:00;95835.94;;;21.06;24.30
20160;BME280;50187;50.492;12.134;2024-01-15T02:48:45;95834.28;;;21.05;24.58
20160;BME280;50187;50.492;12.134;2024-01-15T02:51:30;95838.66;;;21.06;24.41
20160;BME280;50187;50.492;12.134;2024-01-15T02:54:16;95839.47;;;21.06;24.45
20160;BME280;50187;50.492;12.134;2024-01-15T02:57:01;95823.69;;;20.97;24.56
20160;BME280;50187;50.492;12.134;2024-01-15T02:59:46;95846.97;;;21.04;24.60
20160;BME280;50187;50.492;12.134;2024-01-15T03:02:31;95854.88;;;21.06;24.48
20160;BME280;50187;50.492;12.134;2024-01-15T03:05:17;95848.22;;;21.02;24.27
20160;BME280;50187;50.492;12.134;2024-01-15T03:08:02;95862.34;;;21.04;24.58
20160;BME280;50187;50.492;12.134;2024-01-15T03:10:48;95855.91;;;21.05;24.38
20160;BME280;50187;50.492;12.134;2024-01-15T03:13:36;95846.97;;;20.98;24.41
20160;BME280;50187;50.492;12.134;2024-01-15T03:16:21;95862.34;;;21.04;24.51
20160;BME280;50187;50.492;12.134;2024-01-15T03:19:06;95845.53;;;21.02;24.53
20160;BME280;50187;50.492;12.134;2024-01-15T03:21:52;95852.16;;;21.06;24.46
20160;BME280;50187;50.492;12.134;2024-01-15T03:24:37;95850.09;;;21.01;24.26
20160;BME280;50187;50.492;12.134;2024-01-15T03:27:23;95846.34;;;21.02;24.35
20160;BME280;50187;50.492;12.134;2024-01-15T03:30:08;95854.88;;;21.06;24.35
20160;BME280;50187;50.492;12.134;2024-01-15T03:32:53;95852.81;;;21.01;24.50
20160;BME280;50187;50.492;12.134;2024-01-15T03:35:39;95846.13;;;21.04;24.58
20160;BME280;50187;50.492;12.134;2024-01-15T03:38:28;95836.16;;;21.04;24.21
20160;BME280;50187;50.492;12.134;2024-01-15T03:41:13;95812.66;;;21.05;24.31
20160;BME280;50187;50.492;12.134;2024-01-15T03:43:58;95814.53;;;21.04;24.19
20160;BME280;50187;50.492;12.134;2024-01-15T03:46:44;95814.53;;;21.04;24.52
20160;BME280;50187;50.492;12.134;2024-01-15T03:49:29;95821.81;;;21.04;24.40
20160;BME280;50187;50.492;12.134;2024-01-15T03:52:15;95827.63;;;21.01;24.28
20160;BME280;50187;50.492;12.134;2024-01-15T03:55:00;95832.63;;;21.04;24.31
20160;BME280;50187;50.492;12.134;2024-01-15T03:57:46;95838.66;;;21.06;24.36
20160;BME280;50187;50.492;12.134;2024-01-15T04:00:31;95831.78;;;21.03;24.51
20160;BME280;50187;50.492;12.134;2024-01-15T04:03:16;95828.28;;;21.03;24.52
20160;BME280;50187;50.492;12.134;2024-01-15T04:06:03;95835.31;;;21.04;24.53
20160;BME280;50187;50.492;12.134;2024-01-15T04:08:48;95824.72;;;21.02;24.47
20160;BME280;50187;50.492;12.134;2024-01-15T04:11:33;95820.16;;;21.03;24.39
20160;BME280;50187;50.492;12.134;2024-01-15T04:14:18;95811.19;;;21.02;24.37
20160;BME280;50187;50.492;12.134;2024-01-15T04:17:03;95810.38;;;21.02;24.15
20160;BME280;50187;50.492;12.134;2024-01-15T04:19:49;95808.94;;;20.99;24.30
20160;BME280;50187;50.492;12.134;2024-01-15T04:22:35;95825.56;;;21.03;24.48
20160;BME280;50187;50.492;12.134;2024-01-15T04:25:20;95829.50;;;21.00;24.33
20160;BME280;50187;50.492;12.134;2024-01-15T04:28:06;95826.59;;;21.02;24.36
20160;BME280;50187;50.492;12.134;2024-01-15T04:30:51;95826.81;;;21.00;24.33
20160;BME280;50187;50.492;12.134;2024-01-15T04:33:36;95823.06;;;21.01;24.21
20160;BME280;50187;50.492;12.134;2024-01-15T04:36:22;95820.16;;;21.03;24.37
20160;BME280;50187;50.492;12.134;2024-01-15T04:39:07;95815.19;;;21.00;24.25
20160;BME280;50187;50.492;12.134;2024-01-15T04:41:53;95833.88;;;21.01;24.43
20160;BME280;50187;50.492;12.134;2024-01-15T04:44:38;95832.81;;;21.02;24.39
20160;BME280;50187;50.492;12.134;2024-01-15T04:47:23;95835.53;;;21.02;24.02
20160;BME280;50187;50.492;12.134;2024-01-15T04:50:08;95818.69;;;21.00;24.18
20160;BME280;50187;50.492;12.134;2024-01-15T04:52:53;95823.91;;;21.02;24.25
20160;BME280;50187;50.492;12.134;2024-01-15T04:55:38;95839.50;;;21.00;24.30
20160;BME280;50187;50.492;12.134;2024-01-15T04:58:24;95822.88;;;21.03;24.24
20160;BME280;50187;50.492;12.134;2024-01-15T05:01:11;95825.97;;;21.06;24.28
20160;BME280;50187;50.492;12.134;2024-01-15T05:03:57;95885.44;;;21.06;24.23
20160;BME280;50187;50.492;12.134;2024-01-15T05:06:44;95830.13;;;21.09;24.23
20160;BME280;50187;50.492;12.134;2024-01-15T05:09:29;95829.47;;;21.20;24.05
20160;BME280;50187;50.492;12.134;2024-01-15T05:12:17;95815.56;;;21.17;24.25
20160;BME280;50187;50.492;12.134;2024-01-15T05:15:03;95818.66;;;21.20;23.99
20160;BME280;50187;50.492;12.134;2024-01-15T05:17:48;95827.56;;;21.27;24.05
20160;BME280;50187;50.492;12.134;2024-01-15T05:20:34;95825.50;;;21.30;23.90
20160;BME280;50187;50.492;12.134;2024-01-15T05:23:20;95819.03;;;21.31;24.01
20160;BME280;50187;50.492;12.134;2024-01-15T05:26:05;95817.59;;;21.28;23.89
20160;BME280;50187;50.492;12.134;2024-01-15T05:28:50;95819.22;;;21.36;24.08
20160;BME280;50187;50.492;12.134;2024-01-15T05:31:35;95824.84;;;21.41;23.90
20160;BME280;50187;50.492;12.134;2024-01-15T05:34:21;95819.22;;;21.42;23.89
20160;BME280;50187;50.492;12.134;2024-01-15T05:37:06;95813.59;;;21.44;23.87
20160;BME280;50187;50.492;12.134;2024-01-15T05:39:52;95818.41;;;21.42;23.93
20160;BME280;50187;50.492;12.134;2024-01-15T05:42:37;95813.59;;;21.44;23.86
20160;BME280;50187;50.492;12.134;2024-01-15T05:45:22;95816.28;;;21.44;24.15
20160;BME280;50187;50.492;12.134;2024-01-15T05:48:08;95822.13;;;21.48;24.06
20160;BME280;50187;50.492;12.134;2024-01-15T05:50:53;95831.88;;;21.49;23.81
20160;BME280;50187;50.492;12.134;2024-01-15T05:53:39;95827.91;;;21.51;23.78
20160;BME280;50187;50.492;12.134;2024-01-15T05:56:26;95832.09;;;21.47;23.78
20160;BME280;50187;50.492;12.134;2024-01-15T05:59:12;95820.84;;;21.50;24.04
20160;BME280;50187;50.492;12.134;2024-01-15T06:02:00;95810.06;;;21.43;23.94
20160;BME280;50187;50.492;12.134;2024-01-15T06:04:45;95834.00;;;21.53;23.78
20160;BME280;50187;50.492;12.134;2024-01-15T06:07:30;95825.66;;;21.55;23.99
20160;BME280;50187;50.492;12.134;2024-01-15T06:10:16;95821.88;;;21.56;23.94
20160;BME280;50187;50.492;12.134;2024-01-15T06:13:01;95821.28;;;21.54;23.99
20160;BME280;50187;50.492;12.134;2024-01-15T06:15:47;95825.03;;;21.53;23.98
20160;BME280;50187;50.492;12.134;2024-01-15T06:18:32;95813.78;;;21.56;23.63
20160;BME280;50187;50.492;12.134;2024-01-15T06:21:18;95813.78;;;21.56;23.89
20160;BME280;50187;50.492;12.134;2024-01-15T06:24:03;95799.19;;;21.50;23.81
20160;BME280;50187;50.492;12.134;2024-01-15T06:26:48;95825.81;;;21.60;23.70
20160;BME280;50187;50.492;12.134;2024-01-15T06:29:37;95809.59;;;21.60;23.68
20160;BME280;50187;50.492;12.134;2024-01-15T06:32:22;95819.59;;;21.59;23.95
20160;BME280;50187;50.492;12.134;2024-01-15T06:35:08;95820.25;;;21.55;23.93
20160;BME280;50187;50.492;12.134;2024-01-15T06:37:55;95824.56;;;21.63;23.62
20160;BME280;50187;50.492;12.134;2024-01-15T06:40:40;95823.97;;;21.60;23.83
20160;BME280;50187;50.492;12.134;2024-01-15T06:43:30;95815.84;;;21.60;23.99
20160;BME280;50187;50.492;12.134;2024-01-15T06:46:22;95808.34;;;21.63;23.78
20160;BME280;50187;50.492;12.134;2024-01-15T06:49:07;95781.53;;;21.54;23.86
20160;BME280;50187;50.492;12.134;2024-01-15T06:51:53;95804.38;;;21.65;23.89
20160;BME280;50187;50.492;12.134;2024-01-15T06:54:38;95806.44;;;21.63;23.63
20160;BME280;50187;50.492;12.134;2024-01-15T06:57:23;95802.94;;;21.63;23.57
20160;BME280;50187;50.492;12.134;2024-01-15T07:00:09;95805.44;;;21.57;23.49
20160;BME280;50187;50.492;12.134;2024-01-15T07:02:55;95815.41;;;21.64;23.82
20160;BME280;50187;50.492;12.134;2024-01-15T07:05:41;95817.09;;;21.65;23.87
20160;BME280;50187;50.492;12.134;2024-01-15T07:08:27;95810.00;;;21.64;23.83
20160;BME280;50187;50.492;12.134;2024-01-15T07:11:12;95809.56;;;21.67;23.72
20160;BME280;50187;50.492;12.134;2024-01-15T07:13:57;95799.41;;;21.62;23.69
20160;BME280;50187;50.492;12.134;2024-01-15T07:16:43;95801.25;;;21.61;23.65
20160;BME280;50187;50.492;12.134;2024-01-15T07:19:32;95808.34;;;21.63;23.81
20160;BME280;50187;50.492;12.134;2024-01-15T07:22:18;95808.78;;;21.59;23.79
20160;BME280;50187;50.492;12.134;2024-01-15T07:25:04;95788.38;;;21.64;23.58
20160;BME280;50187;50.492;12.134;2024-01-15T07:27:50;95797.09;;;21.66;23.77
20160;BME280;50187;50.492;12.134;2024-01-15T07:30:35;95789.19;;;21.64;23.71
20160;BME280;50187;50.492;12.134;2024-01-15T07:33:23;95788.81;;;21.60;23.51
20160;BME280;50187;50.492;12.134;2024-01-15T07:36:09;95802.31;;;21.60;23.78
20160;BME280;50187;50.492;12.134;2024-01-15T07:38:54;95806.44;;;21.63;23.62
20160;BME280;50187;50.492;12.134;2024-01-15T07:41:40;95808.53;;;21.68;23.62
20160;BME280;50187;50.492;12.134;2024-01-15T07:44:25;95798.53;;;21.68;23.57
20160;BME280;50187;50.492;12.134;2024-01-15T07:47:10;95793.34;;;21.67;23.71
20160;BME280;50187;50.492;12.134;2024-01-15T07:49:56;95799.38;;;21.69;23.77
20160;BME280;50187;50.492;12.134;2024-01-15T07:52:45;95795.44;;;21.65;23.56
20160;BME280;50187;50.492;12.134;2024-01-15T07:55:30;95802.91;;;21.69;23.66
20160;BME280;50187;50.492;12.134;2024-01-15T07:58:16;95806.44;;;21.70;23.67
20160;BME280;50187;50.492;12.134;2024-01-15T08:01:02;95806.44;;;21.70;23.48
20160;BME280;50187;50.492;12.134;2024-01-15T08:03:47;95803.72;;;21.70;23.55
20160;BME280;50187;50.492;12.134;2024-01-15T08:06:33;95806.25;;;21.65;23.57
20160;BME280;50187;50.492;12.134;2024-01-15T08:09:18;95801.66;;;21.72;23.63
20160;BME280;50187;50.492;12.134;2024-01-15T08:12:04;95803.50;;;21.71;23.53
20160;BME280;50187;50.492;12.134;2024-01-15T08:14:51;95800.81;;;21.71;23.76
20160;BME280;50187;50.492;12.134;2024-01-15T08:17:36;95803.28;;;21.73;23.69
20160;BME280;50187;50.492;12.134;2024-01-15T08:20:21;95807.06;;;21.72;23.46
20160;BME280;50187;50.492;12.134;2024-01-15T08:23:07;95801.66;;;21.72;23.47
20160;BME280;50187;50.492;12.134;2024-01-15T08:25:52;95794.56;;;21.71;23.47
20160;BME280;50187;50.492;12.134;2024-01-15T08:28:37;95802.25;;;21.74;23.55
20160;BME280;50187;50.492;12.134;2024-01-15T08:31:24;95810.38;;;21.74;23.49
20160;BME280;50187;50.492;12.134;2024-01-15T08:34:10;95812.03;;;21.75;23.65
20160;BME280;50187;50.492;12.134;2024-01-15T08:36:55;95809.34;;;21.75;23.67
20160;BME280;50187;50.492;12.134;2024-01-15T08:39:40;95833.91;;;21.73;23.53
20160;BME280;50187;50.492;12.134;2024-01-15T08:42:25;95804.13;;;21.73;23.66
20160;BME280;50187;50.492;12.134;2024-01-15T08:45:11;95809.72;;;21.78;23.50
20160;BME280;50187;50.492;12.134;2024-01-15T08:47:57;95823.91;;;21.74;23.58
20160;BME280;50187;50.492;12.134;2024-01-15T08:50:42;95806.81;;;21.80;23.75
20160;BME280;50187;50.492;12.134;2024-01-15T08:53:30;95807.84;;;21.79;23.48
20160;BME280;50187;50.492;12.134;2024-01-15T08:56:16;95805.38;;;21.77;23.57
20160;BME280;50187;50.492;12.134;2024-01-15T08:59:01;95811.38;;;21.79;23.50
20160;BME280;50187;50.492;12.134;2024-01-15T09:01:46;95811.81;;;21.76;23.17
20160;BME280;50187;50.492;12.134;2024-01-15T09:04:32;95805.38;;;21.77;23.34
20160;BME280;50187;50.492;12.134;2024-01-15T09:07:17;95818.69;;;21.79;23.64
20160;BME280;50187;50.492;12.134;2024-01-15T09:10:03;95815.34;;;21.77;23.70
20160;BME280;50187;50.492;12.134;2024-01-15T09:12:48;95819.72;;;21.78;23.63
20160;BME280;50187;50.492;12.134;2024-01-15T09:15:36;95814.09;;;21.79;23.74
20160;BME280;50187;50.492;12.134;2024-01-15T09:18:22;95808.66;;;21.79;23.52
20160;BME280;50187;50.492;12.134;2024-01-15T09:21:07;95809.53;;;21.80;23.58
20160;BME280;50187;50.492;12.134;2024-01-15T09:23:53;95813.03;;;21.81;23.69
20160;BME280;50187;50.492;12.134;2024-01-15T09:26:38;95810.34;;;21.81;23.54
20160;BME280;50187;50.492;12.134;2024-01-15T09:29:24;95816.56;;;21.81;23.59
20160;BME280;50187;50.492;12.134;2024-01-15T09:32:09;95808.06;;;21.77;23.50
20160;BME280;50187;50.492;12.134;2024-01-15T09:34:54;95809.53;;;21.80;23.68
20160;BME280;50187;50.492;12.134;2024-01-15T09:37:40;95808.66;;;21.79;23.50
20160;BME280;50187;50.492;12.134;2024-01-15T09:40:32;95815.53;;;21.82;23.45
20160;BME280;50187;50.492;12.134;2024-01-15T09:43:19;95800.13;;;21.83;23.50
20160;BME280;50187;50.492;12.134;2024-01-15T09:46:04;95803.25;;;21.79;23.42
20160;BME280;50187;50.492;12.134;2024-01-15T09:48:49;95809.09;;;21.83;23.62
20160;BME280;50187;50.492;12.134;2024-01-15T09:51:35;95815.09;;;21.85;23.32
20160;BME280;50187;50.492;12.134;2024-01-15T09:54:21;95812.38;;;21.85;23.68
20160;BME280;50187;50.492;12.134;2024-01-15T09:57:07;95807.84;;;21.79;23.58
20160;BME280;50187;50.492;12.134;2024-01-15T09:59:53;95802.00;;;21.82;23.38
20160;BME280;50187;50.492;12.134;2024-01-15T10:02:40;95795.56;;;21.83;23.48
20160;BME280;50187;50.492;12.134;2024-01-15T10:05:26;95804.50;;;21.84;23.61
20160;BME280;50187;50.492;12.134;2024-01-15T10:08:12;95783.28;;;21.81;23.73
20160;BME280;50187;50.492;12.134;2024-01-15T10:10:58;95786.38;;;21.84;23.76
20160;BME280;50187;50.492;12.134;2024-01-15T10:13:43;95790.97;;;21.84;23.64
20160;BME280;50187;50.492;12.134;2024-01-15T10:16:31;95767.41;;;21.84;23.46
20160;BME280;50187;50.492;12.134;2024-01-15T10:19:16;95770.31;;;21.89;23.68
20160;BME280;50187;50.492;12.134;2024-01-15T10:22:01;95762.81;;;21.91;23.36
20160;BME280;50187;50.492;12.134;2024-01-15T10:24:48;95771.53;;;21.93;23.34
20160;BME280;50187;50.492;12.134;2024-01-15T10:27:34;95769.06;;;21.92;23.39
20160;BME280;50187;50.492;12.134;2024-01-15T10:30:19;95775.28;;;21.92;23.35
20160;BME280;50187;50.492;12.134;2024-01-15T10:33:05;95764.41;;;21.99;23.29
20160;BME280;50187;50.492;12.134;2024-01-15T10:35:54;95760.28;;;21.96;23.40
20160;BME280;50187;50.492;12.134;2024-01-15T10:38:46;95754.94;;;22.15;23.42
20160;BME280;50187;50.492;12.134;2024-01-15T10:41:31;95765.94;;;22.20;23.21
20160;BME280;50187;50.492;12.134;2024-01-15T10:44:19;95752.06;;;22.10;23.43
20160;BME280;50187;50.492;12.134;2024-01-15T10:47:05;95766.84;;;22.14;23.45
20160;BME280;50187;50.492;12.134;2024-01-15T10:49:51;95734.03;;;22.22;23.32
20160;BME280;50187;50.492;12.134;2024-01-15T10:52:38;95723.94;;;22.11;23.32
20160;BME280;50187;50.492;12.134;2024-01-15T10:55:25;95744.31;;;22.13;23.16
20160;BME280;50187;50.492;12.134;2024-01-15T10:58:11;95751.00;;;22.11;23.41
20160;BME280;50187;50.492;12.134;2024-01-15T11:00:57;95733.75;;;22.05;23.53
20160;BME280;50187;50.492;12.134;2024-01-15T11:03:43;95748.16;;;22.06;23.36
20160;BME280;50187;50.492;12.134;2024-01-15T11:06:41;95737.97;;;22.01;23.20
20160;BME280;50187;50.492;12.134;2024-01-15T11:09:27;95733.16;;;22.03;23.45
20160;BME280;50187;50.492;12.134;2024-01-15T11:12:16;95743.22;;;21.96;23.32
20160;BME280;50187;50.492;12.134;2024-01-15T11:15:03;95743.16;;;22.03;23.25
20160;BME280;50187;50.492;12.134;2024-01-15T11:18:01;95735.28;;;22.01;23.20
20160;BME280;50187;50.492;12.134;2024-01-15T11:23:57;95746.50;;;21.98;23.48
20160;BME280;50187;50.492;12.134;2024-01-15T11:32:15;95741.94;;;21.99;23.32
20160;BME280;50187;50.492;12.134;2024-01-15T11:35:03;95755.31;;;21.93;23.48
20160;BME280;50187;50.492;12.134;2024-01-15T11:40:39;95765.69;;;21.96;23.36
20160;BME280;50187;50.492;12.134;2024-01-15T11:43:24;95745.69;;;21.98;23.65
20160;BME280;50187;50.492;12.134;2024-01-15T11:46:11;95739.25;;;21.99;23.33
20160;BME280;50187;50.492;12.134;2024-01-15T11:49:03;95743.44;;;21.94;23.41
20160;BME280;50187;50.492;12.134;2024-01-15T11:51:50;95723.25;;;21.90;23.34
20160;BME280;50187;50.492;12.134;2024-01-15T11:54:38;95727.78;;;21.96;23.49
20160;BME280;50187;50.492;12.134;2024-01-15T11:57:42;95724.47;;;21.94;23.32
20160;BME280;50187;50.492;12.134;2024-01-15T12:00:30;95719.88;;;21.95;23.47
20160;BME280;50187;50.492;12.134;2024-01-15T12:03:15;95713.69;;;21.88;23.68
20160;BME280;50187;50.492;12.134;2024-01-15T12:06:01;95713.66;;;21.94;23.60
20160;BME280;50187;50.492;12.134;2024-01-15T12:08:46;95712.66;;;21.89;23.51
20160;BME280;50187;50.492;12.134;2024-01-15T12:11:34;95719.50;;;21.91;23.39
20160;BME280;50187;50.492;12.134;2024-01-15T12:14:21;95722.81;;;21.93;23.60
20160;BME280;50187;50.492;12.134;2024-01-15T12:17:07;95724.47;;;21.94;23.49
20160;BME280;50187;50.492;12.134;2024-01-15T12:19:52;95734.69;;;21.92;23.51
20160;BME280;50187;50.492;12.134;2024-01-15T12:22:38;95734.25;;;21.95;23.53
20160;BME280;50187;50.492;12.134;2024-01-15T12:25:41;95723.63;;;21.94;23.51
20160;BME280;50187;50.492;12.134;2024-01-15T12:28:27;95714.50;;;21.88;23.53
20160;BME280;50187;50.492;12.134;2024-01-15T12:31:13;95725.31;;;21.95;23.39
20160;BME280;50187;50.492;12.134;2024-01-15T12:33:58;95735.09;;;21.96;23.54
20160;BME280;50187;50.492;12.134;2024-01-15T12:36:46;95729.91;;;21.94;23.44
20160;BME280;50187;50.492;12.134;2024-01-15T12:39:34;95724.47;;;21.94;23.31
20160;BME280;50187;50.492;12.134;2024-01-15T12:42:21;95714.50;;;21.88;23.35
20160;BME280;50187;50.492;12.134;2024-01-15T12:45:07;95718.22;;;21.94;23.34
20160;BME280;50187;50.492;12.134;2024-01-15T12:47:53;95707.63;;;21.92;23.64
20160;BME280;50187;50.492;12.134;2024-01-15T12:50:39;95701.84;;;21.89;23.43
20160;BME280;50187;50.492;12.134;2024-01-15T12:53:25;95702.44;;;21.91;23.34
20160;BME280;50187;50.492;12.134;2024-01-15T12:56:10;95705.34;;;21.89;23.45
20160;BME280;50187;50.492;12.134;2024-01-15T12:58:55;95710.78;;;21.89;23.53
20160;BME280;50187;50.492;12.134;2024-01-15T13:01:41;95712.03;;;21.87;23.44
20160;BME280;50187;50.492;12.134;2024-01-15T13:04:26;95713.69;;;21.88;23.36
20160;BME280;50187;50.492;12.134;2024-01-15T13:07:12;95710.41;;;21.86;23.55
20160;BME280;50187;50.492;12.134;2024-01-15T13:09:58;95712.88;;;21.87;23.66
20160;BME280;50187;50.492;12.134;2024-01-15T13:12:44;95696.63;;;21.87;23.62
20160;BME280;50187;50.492;12.134;2024-01-15T13:15:30;95707.03;;;21.90;23.68
20160;BME280;50187;50.492;12.134;2024-01-15T13:18:16;95707.03;;;21.90;23.36
20160;BME280;50187;50.492;12.134;2024-01-15T13:21:02;95704.13;;;21.85;23.67
20160;BME280;50187;50.492;12.134;2024-01-15T13:23:48;95707.63;;;21.92;23.38
20160;BME280;50187;50.492;12.134;2024-01-15T13:26:33;95715.13;;;21.90;23.54
20160;BME280;50187;50.492;12.134;2024-01-15T13:29:18;95716.59;;;21.93;23.36
20160;BME280;50187;50.492;12.134;2024-01-15T13:32:04;95728.44;;;21.92;23.38
20160;BME280;50187;50.492;12.134;2024-01-15T13:34:50;95718.88;;;21.89;23.43
20160;BME280;50187;50.492;12.134;2024-01-15T13:37:36;95720.78;;;21.89;23.38
20160;BME280;50187;50.492;12.134;2024-01-15T13:40:22;95721.16;;;21.92;23.65
20160;BME280;50187;50.492;12.134;2024-01-15T13:43:07;95723.25;;;21.90;23.38
20160;BME280;50187;50.492;12.134;2024-01-15T13:45:53;95733.03;;;21.91;23.38
20160;BME280;50187;50.492;12.134;2024-01-15T13:48:39;95732.63;;;21.88;23.42
20160;BME280;50187;50.492;12.134;2024-01-15T13:51:25;95721.00;;;21.87;23.66
20160;BME280;50187;50.492;12.134;2024-01-15T13:54:11;95719.34;;;21.86;23.48
20160;BME280;50187;50.492;12.134;2024-01-15T13:56:57;95723.25;;;21.90;23.44
20160;BME280;50187;50.492;12.134;2024-01-15T13:59:44;95729.72;;;21.89;23.45
20160;BME280;50187;50.492;12.134;2024-01-15T14:02:29;95725.34;;;21.88;23.44
20160;BME280;50187;50.492;12.134;2024-01-15T14:05:14;95726.41;;;21.87;23.55
20160;BME280;50187;50.492;12.134;2024-01-15T14:07:59;95715.59;;;21.87;23.47
20160;BME280;50187;50.492;12.134;2024-01-15T14:10:45;95710.16;;;21.87;23.57
20160;BME280;50187;50.492;12.134;2024-01-15T14:13:30;95703.09;;;21.86;23.51
20160;BME280;50187;50.492;12.134;2024-01-15T14:16:16;95702.06;;;21.87;23.77
20160;BME280;50187;50.492;12.134;2024-01-15T14:19:10;95707.47;;;21.87;23.46
20160;BME280;50187;50.492;12.134;2024-01-15T14:21:55;95714.75;;;21.87;23.48
20160;BME280;50187;50.492;12.134;2024-01-15T14:24:41;95716.22;;;21.83;23.36
20160;BME280;50187;50.492;12.134;2024-01-15T14:27:26;95718.28;;;21.87;23.57
20160;BME280;50187;50.492;12.134;2024-01-15T14:30:12;95706.19;;;21.90;23.50
20160;BME280;50187;50.492;12.134;2024-01-15T14:32:58;95708.88;;;21.90;23.38
20160;BME280;50187;50.492;12.134;2024-01-15T14:35:44;95704.81;;;21.81;23.73
20160;BME280;50187;50.492;12.134;2024-01-15T14:38:29;95710.41;;;21.86;23.48